Pagrindinis puslapis
METAR-TAF:

METAR-TAF

Oro uostai :

Pastas, Kolumbija

platuma: 01-25N, ilguma: 077-16W, Aukštis: 1826 m

Dabartinis oras

Ataskaita buvo paskelbta 15 valandos ir 38 minutes, ne 19:00 UTC
Vėjas 9 kt iš Šiaurės/Šiaurės Vakarų
Temperatūra 21°C
Drėgmė 73%
Slėgis 1021 hPa
Matomumas 10 km arba daugiau
Su prošvaistėmis ne aukštis 2000 ft
Liūtis kaimynystėje

METAR: SKPS 301900Z 34009KT 9999 VCSH BKN020 21/16 A3016 RMK VCSH/S

Laikas: 05:38 (10:38 UTC)


TAF: trūkstamas

Orai ataskaitas ir orų prognozės (METAR, TAF).

turimą stotys yra geltonos ir raudonos taškus žemėlapyje.

Perkelti pele per norėdami pamatyti stoties vardą.

Tada spustelėkite, norėdami matyti oro stebėjimo ir prognozės.

Norėdami pakeisti žemėlapį: spustelėkite ant žalios mygtukų su juodo kryžiaus žemyn,; žalią mygtuką su brūkšneliu, jei norite nutolinti; arba žalių rodyklių gretimoms žemėlapius.


METAR-TAF: